Earby, United Kingdom
Current Conditions -  °F | °C
As of 9:50 AM on Friday 19 Dec 2014 (Local Time) from EGNM Reporting Station
Few Clouds Few Clouds  
Wind Chill: 31°   Ceiling: Unl
Heat Index: 41°   Visibility: 6mi
Dew Point: 36°   Wind: 24mph
Humidity: 81%   Direction: 270°W
Pressure: 29.77"   Gusts: NA
Location:  53.92°N, 2.14°W
Report Text: EGNM 190950Z 27021KT 230V300 9999 FEW018CB 05/02 Q1008
Loading
Personal Weather Stations






























Interactive Weather Map New forecast layout! Learn more

10-Day Weather Forecast

Advertisements
Track Severe Weather on mobile